sensor_id;sensor_type;location;lat;lon;timestamp;P1;durP1;ratioP1;P2;durP2;ratioP2
40737;SDS011;54759;48.094;-1.628;2022-12-15T00:00:10;0.80;;;0.50;;
40737;SDS011;54759;48.094;-1.628;2022-12-15T00:03:27;0.60;;;0.52;;
40737;SDS011;54759;48.094;-1.628;2022-12-15T00:06:40;0.93;;;0.77;;
40737;SDS011;54759;48.094;-1.628;2022-12-15T00:09:56;0.70;;;0.63;;
40737;SDS011;54759;48.094;-1.628;2022-12-15T00:13:10;0.60;;;0.45;;
40737;SDS011;54759;48.094;-1.628;2022-12-15T00:16:27;0.90;;;0.80;;
40737;SDS011;54759;48.094;-1.628;2022-12-15T00:19:39;0.60;;;0.60;;
40737;SDS011;54759;48.094;-1.628;2022-12-15T00:22:56;0.70;;;0.60;;
40737;SDS011;54759;48.094;-1.628;2022-12-15T00:26:09;0.75;;;0.63;;
40737;SDS011;54759;48.094;-1.628;2022-12-15T00:29:26;1.20;;;0.80;;
40737;SDS011;54759;48.094;-1.628;2022-12-15T00:32:39;1.08;;;0.70;;
40737;SDS011;54759;48.094;-1.628;2022-12-15T00:35:56;0.85;;;0.60;;
40737;SDS011;54759;48.094;-1.628;2022-12-15T00:39:10;1.20;;;0.90;;
40737;SDS011;54759;48.094;-1.628;2022-12-15T00:42:11;0.90;;;0.52;;
40737;SDS011;54759;48.094;-1.628;2022-12-15T00:45:13;0.88;;;0.70;;
40737;SDS011;54759;48.094;-1.628;2022-12-15T00:48:15;0.63;;;0.50;;
40737;SDS011;54759;48.094;-1.628;2022-12-15T00:54:19;0.85;;;0.60;;
40737;SDS011;54759;48.094;-1.628;2022-12-15T00:57:35;0.90;;;0.75;;
40737;SDS011;54759;48.094;-1.628;2022-12-15T01:00:49;0.93;;;0.70;;
40737;SDS011;54759;48.094;-1.628;2022-12-15T01:04:06;0.98;;;0.80;;
40737;SDS011;54759;48.094;-1.628;2022-12-15T01:07:20;0.73;;;0.70;;
40737;SDS011;54759;48.094;-1.628;2022-12-15T01:10:37;1.20;;;0.90;;
40737;SDS011;54759;48.094;-1.628;2022-12-15T01:13:49;1.33;;;0.93;;
40737;SDS011;54759;48.094;-1.628;2022-12-15T01:17:06;1.05;;;0.90;;
40737;SDS011;54759;48.094;-1.628;2022-12-15T01:20:19;1.25;;;1.13;;
40737;SDS011;54759;48.094;-1.628;2022-12-15T01:23:21;1.08;;;0.85;;
40737;SDS011;54759;48.094;-1.628;2022-12-15T01:26:24;1.50;;;1.10;;
40737;SDS011;54759;48.094;-1.628;2022-12-15T01:29:25;1.15;;;1.00;;
40737;SDS011;54759;48.094;-1.628;2022-12-15T01:32:27;1.35;;;1.10;;
40737;SDS011;54759;48.094;-1.628;2022-12-15T01:35:28;1.55;;;1.00;;
40737;SDS011;54759;48.094;-1.628;2022-12-15T01:38:30;1.58;;;1.30;;
40737;SDS011;54759;48.094;-1.628;2022-12-15T01:41:33;1.27;;;1.17;;
40737;SDS011;54759;48.094;-1.628;2022-12-15T01:44:35;1.17;;;0.98;;
40737;SDS011;54759;48.094;-1.628;2022-12-15T01:47:36;1.58;;;1.40;;
40737;SDS011;54759;48.094;-1.628;2022-12-15T01:50:39;1.80;;;1.40;;
40737;SDS011;54759;48.094;-1.628;2022-12-15T01:53:47;1.77;;;1.30;;
40737;SDS011;54759;48.094;-1.628;2022-12-15T01:56:54;1.63;;;1.40;;
40737;SDS011;54759;48.094;-1.628;2022-12-15T02:00:00;1.52;;;1.33;;
40737;SDS011;54759;48.094;-1.628;2022-12-15T02:03:06;1.98;;;1.70;;
40737;SDS011;54759;48.094;-1.628;2022-12-15T02:06:08;1.63;;;1.38;;
40737;SDS011;54759;48.094;-1.628;2022-12-15T02:09:11;1.95;;;1.55;;
40737;SDS011;54759;48.094;-1.628;2022-12-15T02:12:15;1.40;;;1.30;;
40737;SDS011;54759;48.094;-1.628;2022-12-15T02:15:26;1.83;;;1.60;;
40737;SDS011;54759;48.094;-1.628;2022-12-15T02:18:34;1.48;;;1.35;;
40737;SDS011;54759;48.094;-1.628;2022-12-15T02:21:43;2.05;;;1.50;;
40737;SDS011;54759;48.094;-1.628;2022-12-15T02:25:01;2.10;;;1.70;;
40737;SDS011;54759;48.094;-1.628;2022-12-15T02:28:13;1.50;;;1.20;;
40737;SDS011;54759;48.094;-1.628;2022-12-15T02:31:21;1.63;;;1.30;;
40737;SDS011;54759;48.094;-1.628;2022-12-15T02:34:41;1.42;;;1.10;;
40737;SDS011;54759;48.094;-1.628;2022-12-15T02:37:45;1.88;;;1.58;;
40737;SDS011;54759;48.094;-1.628;2022-12-15T02:40:55;1.90;;;1.55;;
40737;SDS011;54759;48.094;-1.628;2022-12-15T02:43:57;1.73;;;1.60;;
40737;SDS011;54759;48.094;-1.628;2022-12-15T02:50:31;2.20;;;1.83;;
40737;SDS011;54759;48.094;-1.628;2022-12-15T02:53:49;2.15;;;1.67;;
40737;SDS011;54759;48.094;-1.628;2022-12-15T02:57:02;1.67;;;1.40;;
40737;SDS011;54759;48.094;-1.628;2022-12-15T03:00:12;2.00;;;1.50;;
40737;SDS011;54759;48.094;-1.628;2022-12-15T03:03:16;1.70;;;1.60;;
40737;SDS011;54759;48.094;-1.628;2022-12-15T03:06:20;1.77;;;1.45;;
40737;SDS011;54759;48.094;-1.628;2022-12-15T03:09:22;2.05;;;1.85;;
40737;SDS011;54759;48.094;-1.628;2022-12-15T03:12:23;2.40;;;2.20;;
40737;SDS011;54759;48.094;-1.628;2022-12-15T03:15:25;2.13;;;1.77;;
40737;SDS011;54759;48.094;-1.628;2022-12-15T03:18:35;2.05;;;1.83;;
40737;SDS011;54759;48.094;-1.628;2022-12-15T03:21:37;2.45;;;2.25;;
40737;SDS011;54759;48.094;-1.628;2022-12-15T03:24:39;2.03;;;1.83;;
40737;SDS011;54759;48.094;-1.628;2022-12-15T03:27:41;2.10;;;1.90;;
40737;SDS011;54759;48.094;-1.628;2022-12-15T03:30:43;1.90;;;1.70;;
40737;SDS011;54759;48.094;-1.628;2022-12-15T03:33:51;2.45;;;1.85;;
40737;SDS011;54759;48.094;-1.628;2022-12-15T03:36:52;2.05;;;1.73;;
40737;SDS011;54759;48.094;-1.628;2022-12-15T03:39:55;2.10;;;1.88;;
40737;SDS011;54759;48.094;-1.628;2022-12-15T03:42:57;1.92;;;1.65;;
40737;SDS011;54759;48.094;-1.628;2022-12-15T03:45:58;2.03;;;1.70;;
40737;SDS011;54759;48.094;-1.628;2022-12-15T03:49:01;1.83;;;1.60;;
40737;SDS011;54759;48.094;-1.628;2022-12-15T03:52:03;2.30;;;1.98;;
40737;SDS011;54759;48.094;-1.628;2022-12-15T03:55:05;2.20;;;2.00;;
40737;SDS011;54759;48.094;-1.628;2022-12-15T03:58:07;1.90;;;1.70;;
40737;SDS011;54759;48.094;-1.628;2022-12-15T04:01:09;2.33;;;1.70;;
40737;SDS011;54759;48.094;-1.628;2022-12-15T04:04:12;1.75;;;1.58;;
40737;SDS011;54759;48.094;-1.628;2022-12-15T04:07:14;2.22;;;1.98;;
40737;SDS011;54759;48.094;-1.628;2022-12-15T04:10:16;2.00;;;1.80;;
40737;SDS011;54759;48.094;-1.628;2022-12-15T04:13:18;1.88;;;1.63;;
40737;SDS011;54759;48.094;-1.628;2022-12-15T04:16:20;1.92;;;1.58;;
40737;SDS011;54759;48.094;-1.628;2022-12-15T04:19:22;2.22;;;1.92;;
40737;SDS011;54759;48.094;-1.628;2022-12-15T04:22:39;3.00;;;1.80;;
40737;SDS011;54759;48.094;-1.628;2022-12-15T04:25:41;1.80;;;1.52;;
40737;SDS011;54759;48.094;-1.628;2022-12-15T04:28:58;1.95;;;1.45;;
40737;SDS011;54759;48.094;-1.628;2022-12-15T04:32:10;1.95;;;1.50;;
40737;SDS011;54759;48.094;-1.628;2022-12-15T04:35:27;1.38;;;1.15;;
40737;SDS011;54759;48.094;-1.628;2022-12-15T04:38:40;2.15;;;1.52;;
40737;SDS011;54759;48.094;-1.628;2022-12-15T04:41:57;1.65;;;1.50;;
40737;SDS011;54759;48.094;-1.628;2022-12-15T04:45:15;2.22;;;1.52;;
40737;SDS011;54759;48.094;-1.628;2022-12-15T04:48:30;1.88;;;1.60;;
40737;SDS011;54759;48.094;-1.628;2022-12-15T04:51:47;1.65;;;1.33;;
40737;SDS011;54759;48.094;-1.628;2022-12-15T04:55:00;1.80;;;1.40;;
40737;SDS011;54759;48.094;-1.628;2022-12-15T04:58:16;1.67;;;1.42;;
40737;SDS011;54759;48.094;-1.628;2022-12-15T05:01:30;1.40;;;1.10;;
40737;SDS011;54759;48.094;-1.628;2022-12-15T05:04:46;1.35;;;1.10;;
40737;SDS011;54759;48.094;-1.628;2022-12-15T05:08:00;1.23;;;1.08;;
40737;SDS011;54759;48.094;-1.628;2022-12-15T05:11:17;1.38;;;1.17;;
40737;SDS011;54759;48.094;-1.628;2022-12-15T05:14:30;1.33;;;1.23;;
40737;SDS011;54759;48.094;-1.628;2022-12-15T05:17:49;1.40;;;1.20;;
40737;SDS011;54759;48.094;-1.628;2022-12-15T05:21:06;1.45;;;1.05;;
40737;SDS011;54759;48.094;-1.628;2022-12-15T05:24:20;1.17;;;1.00;;
40737;SDS011;54759;48.094;-1.628;2022-12-15T05:27:36;0.98;;;0.82;;
40737;SDS011;54759;48.094;-1.628;2022-12-15T05:30:50;1.50;;;1.15;;
40737;SDS011;54759;48.094;-1.628;2022-12-15T05:34:06;1.23;;;1.10;;
40737;SDS011;54759;48.094;-1.628;2022-12-15T05:37:08;0.95;;;0.85;;
40737;SDS011;54759;48.094;-1.628;2022-12-15T05:40:11;1.60;;;1.05;;
40737;SDS011;54759;48.094;-1.628;2022-12-15T05:43:12;1.60;;;1.00;;
40737;SDS011;54759;48.094;-1.628;2022-12-15T05:46:14;1.30;;;1.20;;
40737;SDS011;54759;48.094;-1.628;2022-12-15T05:49:16;1.20;;;1.10;;
40737;SDS011;54759;48.094;-1.628;2022-12-15T05:52:18;1.50;;;1.20;;
40737;SDS011;54759;48.094;-1.628;2022-12-15T05:55:20;1.10;;;1.00;;
40737;SDS011;54759;48.094;-1.628;2022-12-15T05:58:22;1.52;;;1.25;;
40737;SDS011;54759;48.094;-1.628;2022-12-15T06:01:24;1.67;;;1.27;;
40737;SDS011;54759;48.094;-1.628;2022-12-15T06:04:26;1.33;;;1.00;;
40737;SDS011;54759;48.094;-1.628;2022-12-15T06:07:28;1.58;;;1.20;;
40737;SDS011;54759;48.094;-1.628;2022-12-15T06:10:30;1.33;;;1.08;;
40737;SDS011;54759;48.094;-1.628;2022-12-15T06:13:32;1.40;;;1.05;;
40737;SDS011;54759;48.094;-1.628;2022-12-15T06:16:35;1.50;;;1.15;;
40737;SDS011;54759;48.094;-1.628;2022-12-15T06:19:50;1.60;;;1.05;;
40737;SDS011;54759;48.094;-1.628;2022-12-15T06:22:52;1.20;;;1.10;;
40737;SDS011;54759;48.094;-1.628;2022-12-15T06:25:54;1.30;;;1.00;;
40737;SDS011;54759;48.094;-1.628;2022-12-15T06:28:57;1.27;;;1.13;;
40737;SDS011;54759;48.094;-1.628;2022-12-15T06:32:02;1.30;;;1.10;;
40737;SDS011;54759;48.094;-1.628;2022-12-15T06:35:04;1.50;;;1.27;;
40737;SDS011;54759;48.094;-1.628;2022-12-15T06:38:06;1.52;;;1.27;;
40737;SDS011;54759;48.094;-1.628;2022-12-15T06:41:09;1.40;;;1.23;;
40737;SDS011;54759;48.094;-1.628;2022-12-15T06:44:13;1.38;;;1.20;;
40737;SDS011;54759;48.094;-1.628;2022-12-15T06:47:15;1.38;;;1.17;;
40737;SDS011;54759;48.094;-1.628;2022-12-15T06:50:17;1.30;;;1.13;;
40737;SDS011;54759;48.094;-1.628;2022-12-15T06:53:20;1.50;;;1.10;;
40737;SDS011;54759;48.094;-1.628;2022-12-15T06:56:24;1.25;;;1.15;;
40737;SDS011;54759;48.094;-1.628;2022-12-15T06:59:34;1.75;;;1.25;;
40737;SDS011;54759;48.094;-1.628;2022-12-15T07:02:35;1.55;;;1.13;;
40737;SDS011;54759;48.094;-1.628;2022-12-15T07:05:38;1.20;;;0.98;;
40737;SDS011;54759;48.094;-1.628;2022-12-15T07:08:40;1.00;;;0.90;;
40737;SDS011;54759;48.094;-1.628;2022-12-15T07:11:42;2.08;;;1.10;;
40737;SDS011;54759;48.094;-1.628;2022-12-15T07:14:45;1.23;;;0.90;;
40737;SDS011;54759;48.094;-1.628;2022-12-15T07:17:53;1.63;;;1.42;;
40737;SDS011;54759;48.094;-1.628;2022-12-15T07:27:56;1.30;;;1.20;;
40737;SDS011;54759;48.094;-1.628;2022-12-15T07:31:00;1.35;;;1.00;;
40737;SDS011;54759;48.094;-1.628;2022-12-15T07:34:02;1.50;;;1.13;;
40737;SDS011;54759;48.094;-1.628;2022-12-15T07:37:04;1.33;;;1.10;;
40737;SDS011;54759;48.094;-1.628;2022-12-15T07:40:07;2.05;;;1.25;;
40737;SDS011;54759;48.094;-1.628;2022-12-15T07:43:09;3.67;;;1.50;;
40737;SDS011;54759;48.094;-1.628;2022-12-15T07:52:51;1.33;;;1.10;;
40737;SDS011;54759;48.094;-1.628;2022-12-15T07:55:53;1.25;;;1.00;;
40737;SDS011;54759;48.094;-1.628;2022-12-15T07:59:09;1.40;;;0.85;;
40737;SDS011;54759;48.094;-1.628;2022-12-15T08:02:10;1.27;;;0.95;;
40737;SDS011;54759;48.094;-1.628;2022-12-15T08:05:13;1.50;;;1.15;;
40737;SDS011;54759;48.094;-1.628;2022-12-15T08:08:14;1.83;;;1.10;;
40737;SDS011;54759;48.094;-1.628;2022-12-15T08:11:18;1.17;;;0.85;;
40737;SDS011;54759;48.094;-1.628;2022-12-15T08:14:23;1.00;;;0.90;;
40737;SDS011;54759;48.094;-1.628;2022-12-15T08:17:26;1.20;;;1.10;;
40737;SDS011;54759;48.094;-1.628;2022-12-15T08:20:28;1.90;;;1.23;;
40737;SDS011;54759;48.094;-1.628;2022-12-15T08:23:30;1.05;;;0.90;;
40737;SDS011;54759;48.094;-1.628;2022-12-15T08:26:34;1.33;;;0.98;;
40737;SDS011;54759;48.094;-1.628;2022-12-15T08:29:36;1.50;;;1.20;;
40737;SDS011;54759;48.094;-1.628;2022-12-15T08:39:49;1.10;;;0.90;;
40737;SDS011;54759;48.094;-1.628;2022-12-15T08:46:02;1.88;;;1.20;;
40737;SDS011;54759;48.094;-1.628;2022-12-15T08:49:03;1.48;;;1.38;;
40737;SDS011;54759;48.094;-1.628;2022-12-15T08:52:05;1.60;;;1.30;;
40737;SDS011;54759;48.094;-1.628;2022-12-15T08:55:08;1.92;;;1.20;;
40737;SDS011;54759;48.094;-1.628;2022-12-15T08:58:11;1.02;;;0.82;;
40737;SDS011;54759;48.094;-1.628;2022-12-15T09:01:14;1.50;;;1.10;;
40737;SDS011;54759;48.094;-1.628;2022-12-15T09:04:23;1.30;;;0.93;;
40737;SDS011;54759;48.094;-1.628;2022-12-15T09:07:25;1.20;;;0.80;;
40737;SDS011;54759;48.094;-1.628;2022-12-15T09:10:27;1.08;;;0.90;;
40737;SDS011;54759;48.094;-1.628;2022-12-15T09:21:47;2.25;;;0.90;;
40737;SDS011;54759;48.094;-1.628;2022-12-15T09:24:49;1.02;;;0.75;;
40737;SDS011;54759;48.094;-1.628;2022-12-15T09:27:51;1.17;;;1.00;;
40737;SDS011;54759;48.094;-1.628;2022-12-15T09:31:00;3.53;;;0.82;;
40737;SDS011;54759;48.094;-1.628;2022-12-15T09:34:03;1.23;;;0.90;;
40737;SDS011;54759;48.094;-1.628;2022-12-15T09:37:05;2.10;;;0.82;;
40737;SDS011;54759;48.094;-1.628;2022-12-15T09:40:07;0.93;;;0.80;;
40737;SDS011;54759;48.094;-1.628;2022-12-15T09:43:13;0.90;;;0.70;;
40737;SDS011;54759;48.094;-1.628;2022-12-15T09:46:39;1.05;;;0.65;;
40737;SDS011;54759;48.094;-1.628;2022-12-15T09:49:52;0.82;;;0.82;;
40737;SDS011;54759;48.094;-1.628;2022-12-15T09:52:55;0.93;;;0.70;;
40737;SDS011;54759;48.094;-1.628;2022-12-15T09:56:00;1.13;;;0.80;;
40737;SDS011;54759;48.094;-1.628;2022-12-15T09:59:11;1.02;;;0.60;;
40737;SDS011;54759;48.094;-1.628;2022-12-15T10:02:27;0.93;;;0.77;;
40737;SDS011;54759;48.094;-1.628;2022-12-15T10:05:53;0.85;;;0.60;;
40737;SDS011;54759;48.094;-1.628;2022-12-15T10:09:26;2.40;;;0.73;;
40737;SDS011;54759;48.094;-1.628;2022-12-15T10:12:31;0.80;;;0.70;;
40737;SDS011;54759;48.094;-1.628;2022-12-15T10:15:37;0.88;;;0.70;;
40737;SDS011;54759;48.094;-1.628;2022-12-15T10:18:49;0.80;;;0.70;;
40737;SDS011;54759;48.094;-1.628;2022-12-15T10:22:01;1.08;;;0.80;;
40737;SDS011;54759;48.094;-1.628;2022-12-15T10:25:08;0.85;;;0.80;;
40737;SDS011;54759;48.094;-1.628;2022-12-15T10:28:22;1.10;;;0.80;;
40737;SDS011;54759;48.094;-1.628;2022-12-15T10:31:34;1.02;;;0.75;;
40737;SDS011;54759;48.094;-1.628;2022-12-15T10:34:42;1.00;;;0.60;;
40737;SDS011;54759;48.094;-1.628;2022-12-15T10:37:45;1.13;;;0.70;;
40737;SDS011;54759;48.094;-1.628;2022-12-15T10:40:52;0.80;;;0.70;;
40737;SDS011;54759;48.094;-1.628;2022-12-15T10:43:55;1.13;;;0.60;;
40737;SDS011;54759;48.094;-1.628;2022-12-15T10:46:57;0.90;;;0.65;;
40737;SDS011;54759;48.094;-1.628;2022-12-15T10:50:15;0.93;;;0.70;;
40737;SDS011;54759;48.094;-1.628;2022-12-15T10:53:40;0.80;;;0.60;;
40737;SDS011;54759;48.094;-1.628;2022-12-15T10:56:46;0.80;;;0.60;;
40737;SDS011;54759;48.094;-1.628;2022-12-15T10:59:50;0.80;;;0.60;;
40737;SDS011;54759;48.094;-1.628;2022-12-15T11:02:52;0.70;;;0.40;;
40737;SDS011;54759;48.094;-1.628;2022-12-15T11:05:55;1.15;;;0.80;;
40737;SDS011;54759;48.094;-1.628;2022-12-15T11:09:06;2.65;;;0.80;;
40737;SDS011;54759;48.094;-1.628;2022-12-15T11:12:15;0.70;;;0.50;;
40737;SDS011;54759;48.094;-1.628;2022-12-15T11:18:48;1.05;;;0.60;;
40737;SDS011;54759;48.094;-1.628;2022-12-15T11:21:54;0.60;;;0.60;;
40737;SDS011;54759;48.094;-1.628;2022-12-15T11:25:02;1.38;;;0.65;;
40737;SDS011;54759;48.094;-1.628;2022-12-15T11:28:13;0.90;;;0.60;;
40737;SDS011;54759;48.094;-1.628;2022-12-15T11:31:19;0.95;;;0.70;;
40737;SDS011;54759;48.094;-1.628;2022-12-15T11:34:32;1.10;;;0.63;;
40737;SDS011;54759;48.094;-1.628;2022-12-15T11:37:38;1.00;;;0.65;;
40737;SDS011;54759;48.094;-1.628;2022-12-15T11:40:42;0.80;;;0.50;;
40737;SDS011;54759;48.094;-1.628;2022-12-15T11:43:49;1.00;;;0.82;;
40737;SDS011;54759;48.094;-1.628;2022-12-15T11:47:08;3.20;;;0.88;;
40737;SDS011;54759;48.094;-1.628;2022-12-15T11:50:23;0.75;;;0.50;;
40737;SDS011;54759;48.094;-1.628;2022-12-15T11:53:35;0.82;;;0.70;;
40737;SDS011;54759;48.094;-1.628;2022-12-15T11:56:51;1.20;;;0.50;;
40737;SDS011;54759;48.094;-1.628;2022-12-15T12:00:02;0.77;;;0.65;;
40737;SDS011;54759;48.094;-1.628;2022-12-15T12:03:22;0.85;;;0.57;;
40737;SDS011;54759;48.094;-1.628;2022-12-15T12:06:32;0.93;;;0.60;;
40737;SDS011;54759;48.094;-1.628;2022-12-15T12:09:39;0.75;;;0.60;;
40737;SDS011;54759;48.094;-1.628;2022-12-15T12:12:50;0.60;;;0.52;;
40737;SDS011;54759;48.094;-1.628;2022-12-15T12:15:59;0.82;;;0.43;;
40737;SDS011;54759;48.094;-1.628;2022-12-15T12:19:10;1.17;;;0.70;;
40737;SDS011;54759;48.094;-1.628;2022-12-15T12:22:19;0.70;;;0.52;;
40737;SDS011;54759;48.094;-1.628;2022-12-15T12:25:23;0.40;;;0.40;;
40737;SDS011;54759;48.094;-1.628;2022-12-15T12:28:26;0.98;;;0.60;;
40737;SDS011;54759;48.094;-1.628;2022-12-15T12:31:35;0.65;;;0.63;;
40737;SDS011;54759;48.094;-1.628;2022-12-15T12:34:54;0.75;;;0.40;;
40737;SDS011;54759;48.094;-1.628;2022-12-15T12:38:23;0.93;;;0.60;;
40737;SDS011;54759;48.094;-1.628;2022-12-15T12:41:32;0.60;;;0.50;;
40737;SDS011;54759;48.094;-1.628;2022-12-15T12:44:39;1.10;;;0.70;;
40737;SDS011;54759;48.094;-1.628;2022-12-15T12:47:43;0.60;;;0.50;;
40737;SDS011;54759;48.094;-1.628;2022-12-15T12:50:50;0.70;;;0.60;;
40737;SDS011;54759;48.094;-1.628;2022-12-15T12:53:52;1.15;;;0.63;;
40737;SDS011;54759;48.094;-1.628;2022-12-15T12:56:56;0.80;;;0.50;;
40737;SDS011;54759;48.094;-1.628;2022-12-15T12:59:59;1.00;;;0.88;;
40737;SDS011;54759;48.094;-1.628;2022-12-15T13:09:50;0.60;;;0.50;;
40737;SDS011;54759;48.094;-1.628;2022-12-15T13:13:14;1.55;;;0.45;;
40737;SDS011;54759;48.094;-1.628;2022-12-15T13:16:35;0.50;;;0.50;;
40737;SDS011;54759;48.094;-1.628;2022-12-15T13:26:40;0.52;;;0.40;;
40737;SDS011;54759;48.094;-1.628;2022-12-15T13:29:53;0.73;;;0.60;;
40737;SDS011;54759;48.094;-1.628;2022-12-15T13:57:33;0.88;;;0.65;;
40737;SDS011;54759;48.094;-1.628;2022-12-15T14:00:48;1.02;;;0.75;;
40737;SDS011;54759;48.094;-1.628;2022-12-15T14:03:56;0.90;;;0.73;;
40737;SDS011;54759;48.094;-1.628;2022-12-15T14:06:59;1.25;;;0.60;;
40737;SDS011;54759;48.094;-1.628;2022-12-15T14:13:33;0.63;;;0.52;;
40737;SDS011;54759;48.094;-1.628;2022-12-15T14:16:37;1.00;;;0.70;;
40737;SDS011;54759;48.094;-1.628;2022-12-15T14:19:39;0.98;;;0.70;;
40737;SDS011;54759;48.094;-1.628;2022-12-15T14:22:41;0.77;;;0.57;;
40737;SDS011;54759;48.094;-1.628;2022-12-15T14:25:50;0.88;;;0.68;;
40737;SDS011;54759;48.094;-1.628;2022-12-15T14:28:59;1.17;;;0.55;;
40737;SDS011;54759;48.094;-1.628;2022-12-15T14:32:02;1.00;;;0.70;;
40737;SDS011;54759;48.094;-1.628;2022-12-15T14:35:05;0.90;;;0.70;;
40737;SDS011;54759;48.094;-1.628;2022-12-15T14:38:13;0.50;;;0.50;;
40737;SDS011;54759;48.094;-1.628;2022-12-15T14:44:23;0.80;;;0.55;;
40737;SDS011;54759;48.094;-1.628;2022-12-15T14:47:50;0.65;;;0.65;;
40737;SDS011;54759;48.094;-1.628;2022-12-15T14:51:13;0.77;;;0.50;;
40737;SDS011;54759;48.094;-1.628;2022-12-15T14:54:25;0.80;;;0.70;;
40737;SDS011;54759;48.094;-1.628;2022-12-15T14:57:36;0.90;;;0.60;;
40737;SDS011;54759;48.094;-1.628;2022-12-15T15:00:47;2.15;;;0.70;;
40737;SDS011;54759;48.094;-1.628;2022-12-15T15:03:55;0.60;;;0.50;;
40737;SDS011;54759;48.094;-1.628;2022-12-15T15:06:59;0.82;;;0.70;;
40737;SDS011;54759;48.094;-1.628;2022-12-15T15:10:02;0.73;;;0.60;;
40737;SDS011;54759;48.094;-1.628;2022-12-15T15:13:22;0.90;;;0.63;;
40737;SDS011;54759;48.094;-1.628;2022-12-15T15:16:27;1.42;;;0.70;;
40737;SDS011;54759;48.094;-1.628;2022-12-15T15:19:29;0.90;;;0.70;;
40737;SDS011;54759;48.094;-1.628;2022-12-15T15:22:41;0.60;;;0.50;;
40737;SDS011;54759;48.094;-1.628;2022-12-15T15:25:48;0.90;;;0.65;;
40737;SDS011;54759;48.094;-1.628;2022-12-15T15:28:51;0.70;;;0.60;;
40737;SDS011;54759;48.094;-1.628;2022-12-15T15:32:03;1.15;;;0.85;;
40737;SDS011;54759;48.094;-1.628;2022-12-15T15:35:06;0.65;;;0.60;;
40737;SDS011;54759;48.094;-1.628;2022-12-15T15:38:13;0.60;;;0.50;;
40737;SDS011;54759;48.094;-1.628;2022-12-15T15:41:20;0.80;;;0.57;;
40737;SDS011;54759;48.094;-1.628;2022-12-15T15:44:26;0.85;;;0.60;;
40737;SDS011;54759;48.094;-1.628;2022-12-15T15:47:28;0.65;;;0.50;;
40737;SDS011;54759;48.094;-1.628;2022-12-15T15:50:30;0.70;;;0.55;;
40737;SDS011;54759;48.094;-1.628;2022-12-15T15:53:32;0.60;;;0.50;;
40737;SDS011;54759;48.094;-1.628;2022-12-15T15:56:35;0.40;;;0.35;;
40737;SDS011;54759;48.094;-1.628;2022-12-15T15:59:38;0.73;;;0.60;;
40737;SDS011;54759;48.094;-1.628;2022-12-15T16:17:01;0.65;;;0.60;;
40737;SDS011;54759;48.094;-1.628;2022-12-15T16:20:03;0.80;;;0.60;;
40737;SDS011;54759;48.094;-1.628;2022-12-15T16:23:09;1.20;;;0.68;;
40737;SDS011;54759;48.094;-1.628;2022-12-15T16:26:14;0.88;;;0.70;;
40737;SDS011;54759;48.094;-1.628;2022-12-15T16:29:20;0.60;;;0.60;;
40737;SDS011;54759;48.094;-1.628;2022-12-15T16:35:23;0.65;;;0.52;;
40737;SDS011;54759;48.094;-1.628;2022-12-15T16:38:26;0.90;;;0.80;;
40737;SDS011;54759;48.094;-1.628;2022-12-15T16:41:30;0.68;;;0.50;;
40737;SDS011;54759;48.094;-1.628;2022-12-15T16:44:33;0.73;;;0.50;;
40737;SDS011;54759;48.094;-1.628;2022-12-15T16:47:35;0.50;;;0.50;;
40737;SDS011;54759;48.094;-1.628;2022-12-15T16:50:37;0.60;;;0.52;;
40737;SDS011;54759;48.094;-1.628;2022-12-15T16:53:40;0.65;;;0.65;;
40737;SDS011;54759;48.094;-1.628;2022-12-15T16:56:42;0.70;;;0.70;;
40737;SDS011;54759;48.094;-1.628;2022-12-15T16:59:44;0.70;;;0.60;;
40737;SDS011;54759;48.094;-1.628;2022-12-15T17:02:46;0.80;;;0.63;;
40737;SDS011;54759;48.094;-1.628;2022-12-15T17:05:49;1.05;;;0.70;;
40737;SDS011;54759;48.094;-1.628;2022-12-15T17:08:53;0.80;;;0.70;;
40737;SDS011;54759;48.094;-1.628;2022-12-15T17:11:57;0.70;;;0.60;;
40737;SDS011;54759;48.094;-1.628;2022-12-15T17:14:59;0.73;;;0.60;;
40737;SDS011;54759;48.094;-1.628;2022-12-15T17:18:03;0.50;;;0.47;;
40737;SDS011;54759;48.094;-1.628;2022-12-15T17:21:05;0.70;;;0.50;;
40737;SDS011;54759;48.094;-1.628;2022-12-15T17:24:13;1.00;;;0.73;;
40737;SDS011;54759;48.094;-1.628;2022-12-15T17:36:37;0.80;;;0.70;;
40737;SDS011;54759;48.094;-1.628;2022-12-15T17:39:39;0.80;;;0.60;;
40737;SDS011;54759;48.094;-1.628;2022-12-15T17:42:44;0.80;;;0.60;;
40737;SDS011;54759;48.094;-1.628;2022-12-15T17:45:46;0.90;;;0.60;;
40737;SDS011;54759;48.094;-1.628;2022-12-15T17:48:50;0.60;;;0.60;;
40737;SDS011;54759;48.094;-1.628;2022-12-15T17:51:52;0.80;;;0.65;;
40737;SDS011;54759;48.094;-1.628;2022-12-15T17:54:53;1.05;;;0.70;;
40737;SDS011;54759;48.094;-1.628;2022-12-15T17:57:56;0.68;;;0.60;;
40737;SDS011;54759;48.094;-1.628;2022-12-15T18:00:58;0.60;;;0.47;;
40737;SDS011;54759;48.094;-1.628;2022-12-15T18:03:59;0.40;;;0.40;;
40737;SDS011;54759;48.094;-1.628;2022-12-15T18:07:01;0.52;;;0.52;;
40737;SDS011;54759;48.094;-1.628;2022-12-15T18:10:04;0.40;;;0.40;;
40737;SDS011;54759;48.094;-1.628;2022-12-15T18:13:11;0.60;;;0.50;;
40737;SDS011;54759;48.094;-1.628;2022-12-15T18:16:16;0.60;;;0.40;;
40737;SDS011;54759;48.094;-1.628;2022-12-15T18:19:17;0.82;;;0.50;;
40737;SDS011;54759;48.094;-1.628;2022-12-15T18:22:20;0.50;;;0.50;;
40737;SDS011;54759;48.094;-1.628;2022-12-15T18:25:24;0.77;;;0.50;;
40737;SDS011;54759;48.094;-1.628;2022-12-15T18:28:27;0.70;;;0.52;;
40737;SDS011;54759;48.094;-1.628;2022-12-15T18:31:29;0.88;;;0.60;;
40737;SDS011;54759;48.094;-1.628;2022-12-15T18:37:33;0.63;;;0.60;;
40737;SDS011;54759;48.094;-1.628;2022-12-15T18:40:35;0.65;;;0.50;;
40737;SDS011;54759;48.094;-1.628;2022-12-15T18:43:38;0.57;;;0.43;;
40737;SDS011;54759;48.094;-1.628;2022-12-15T18:46:41;0.60;;;0.60;;
40737;SDS011;54759;48.094;-1.628;2022-12-15T18:49:48;0.55;;;0.50;;
40737;SDS011;54759;48.094;-1.628;2022-12-15T18:52:56;0.50;;;0.40;;
40737;SDS011;54759;48.094;-1.628;2022-12-15T18:56:00;0.60;;;0.50;;
40737;SDS011;54759;48.094;-1.628;2022-12-15T18:59:02;0.40;;;0.40;;
40737;SDS011;54759;48.094;-1.628;2022-12-15T19:02:06;0.68;;;0.68;;
40737;SDS011;54759;48.094;-1.628;2022-12-15T19:05:08;0.70;;;0.50;;
40737;SDS011;54759;48.094;-1.628;2022-12-15T19:08:27;0.73;;;0.40;;
40737;SDS011;54759;48.094;-1.628;2022-12-15T19:11:31;0.50;;;0.40;;
40737;SDS011;54759;48.094;-1.628;2022-12-15T19:14:34;0.70;;;0.55;;
40737;SDS011;54759;48.094;-1.628;2022-12-15T19:17:42;0.90;;;0.55;;
40737;SDS011;54759;48.094;-1.628;2022-12-15T19:21:04;0.68;;;0.50;;
40737;SDS011;54759;48.094;-1.628;2022-12-15T19:24:28;0.65;;;0.50;;
40737;SDS011;54759;48.094;-1.628;2022-12-15T19:27:46;0.90;;;0.80;;
40737;SDS011;54759;48.094;-1.628;2022-12-15T19:33:48;0.60;;;0.40;;
40737;SDS011;54759;48.094;-1.628;2022-12-15T19:39:52;0.55;;;0.47;;
40737;SDS011;54759;48.094;-1.628;2022-12-15T19:42:55;0.47;;;0.40;;
40737;SDS011;54759;48.094;-1.628;2022-12-15T19:45:58;0.50;;;0.50;;
40737;SDS011;54759;48.094;-1.628;2022-12-15T19:48:59;0.57;;;0.47;;
40737;SDS011;54759;48.094;-1.628;2022-12-15T19:52:01;0.57;;;0.40;;
40737;SDS011;54759;48.094;-1.628;2022-12-15T19:55:03;0.75;;;0.57;;
40737;SDS011;54759;48.094;-1.628;2022-12-15T19:58:14;0.30;;;0.30;;
40737;SDS011;54759;48.094;-1.628;2022-12-15T20:01:28;0.65;;;0.50;;
40737;SDS011;54759;48.094;-1.628;2022-12-15T20:04:29;0.52;;;0.40;;
40737;SDS011;54759;48.094;-1.628;2022-12-15T20:07:31;0.75;;;0.50;;
40737;SDS011;54759;48.094;-1.628;2022-12-15T20:13:35;0.60;;;0.50;;
40737;SDS011;54759;48.094;-1.628;2022-12-15T20:16:37;0.55;;;0.50;;
40737;SDS011;54759;48.094;-1.628;2022-12-15T20:19:39;0.40;;;0.40;;
40737;SDS011;54759;48.094;-1.628;2022-12-15T20:22:41;0.50;;;0.40;;
40737;SDS011;54759;48.094;-1.628;2022-12-15T20:25:44;0.63;;;0.45;;
40737;SDS011;54759;48.094;-1.628;2022-12-15T20:28:46;0.70;;;0.50;;
40737;SDS011;54759;48.094;-1.628;2022-12-15T20:34:50;0.70;;;0.70;;